createdAt,value
2022-08-25T00:00:11.315Z,4.95
2022-08-25T00:02:38.362Z,5.28
2022-08-25T00:05:05.628Z,4.57
2022-08-25T00:07:33.881Z,5.63
2022-08-25T00:10:00.861Z,5.40
2022-08-25T00:12:28.185Z,4.15
2022-08-25T00:14:55.478Z,4.32
2022-08-25T00:17:22.443Z,5.53
2022-08-25T00:19:49.738Z,4.75
2022-08-25T00:22:16.835Z,4.60
2022-08-25T00:24:43.868Z,4.57
2022-08-25T00:27:12.361Z,5.95
2022-08-25T00:29:39.837Z,5.45
2022-08-25T00:32:07.863Z,5.15
2022-08-25T00:34:38.492Z,4.78
2022-08-25T00:37:07.719Z,5.20
2022-08-25T00:39:34.989Z,5.65
2022-08-25T00:42:03.245Z,4.50
2022-08-25T00:44:32.303Z,6.03
2022-08-25T00:47:01.341Z,4.60
2022-08-25T00:49:42.441Z,5.50
2022-08-25T00:52:18.468Z,5.50
2022-08-25T00:55:19.052Z,5.35
2022-08-25T00:57:52.463Z,5.47
2022-08-25T01:00:24.345Z,4.65
2022-08-25T01:02:51.381Z,5.45
2022-08-25T01:05:19.484Z,4.80
2022-08-25T01:07:46.831Z,4.97
2022-08-25T01:10:13.956Z,5.97
2022-08-25T01:12:41.673Z,5.20
2022-08-25T01:15:11.558Z,5.53
2022-08-25T01:17:54.285Z,5.68
2022-08-25T01:20:29.319Z,5.20
2022-08-25T01:22:57.627Z,4.90
2022-08-25T01:25:46.481Z,4.65
2022-08-25T01:28:14.147Z,5.13
2022-08-25T01:30:41.893Z,5.60
2022-08-25T01:33:11.891Z,5.60
2022-08-25T01:35:40.734Z,5.13
2022-08-25T01:38:08.433Z,4.60
2022-08-25T01:40:37.426Z,4.75
2022-08-25T01:43:07.135Z,4.80
2022-08-25T01:45:35.633Z,4.22
2022-08-25T01:48:03.543Z,4.10
2022-08-25T01:50:31.381Z,4.13
2022-08-25T01:53:12.231Z,4.82
2022-08-25T01:56:02.742Z,4.93
2022-08-25T01:58:37.138Z,4.65
2022-08-25T02:03:38.231Z,4.38
2022-08-25T02:06:11.442Z,4.00
2022-08-25T02:08:38.691Z,4.65
2022-08-25T02:11:06.486Z,4.43
2022-08-25T02:13:33.547Z,4.90
2022-08-25T02:16:02.421Z,5.35
2022-08-25T02:18:30.274Z,4.80
2022-08-25T02:20:57.308Z,5.53
2022-08-25T02:23:24.394Z,5.18
2022-08-25T02:25:51.516Z,5.28
2022-08-25T02:28:18.533Z,5.80
2022-08-25T02:30:45.985Z,4.20
2022-08-25T02:33:13.072Z,4.95
2022-08-25T02:35:40.097Z,5.40
2022-08-25T02:38:07.353Z,5.65
2022-08-25T02:40:35.236Z,5.80
2022-08-25T02:43:02.414Z,4.82
2022-08-25T02:45:29.839Z,5.07
2022-08-25T02:47:56.922Z,5.97
2022-08-25T02:50:24.003Z,5.90
2022-08-25T02:52:52.041Z,5.25
2022-08-25T02:55:19.629Z,5.22
2022-08-25T02:57:47.646Z,6.13
2022-08-25T03:00:16.181Z,6.57
2022-08-25T03:02:44.600Z,6.30
2022-08-25T03:05:13.057Z,5.10
2022-08-25T03:07:40.760Z,5.55
2022-08-25T03:10:13.976Z,6.05
2022-08-25T03:12:41.794Z,5.05
2022-08-25T03:15:12.908Z,6.10
2022-08-25T03:17:40.841Z,5.57
2022-08-25T03:20:11.242Z,5.40
2022-08-25T03:22:38.869Z,5.95
2022-08-25T03:25:24.886Z,5.85
2022-08-25T03:27:52.407Z,5.72
2022-08-25T03:30:19.498Z,7.10
2022-08-25T03:32:46.590Z,5.72
2022-08-25T03:35:14.153Z,6.40
2022-08-25T03:37:41.381Z,5.65
2022-08-25T03:40:15.267Z,5.38
2022-08-25T03:42:45.435Z,6.60
2022-08-25T03:45:14.841Z,7.07
2022-08-25T03:47:42.319Z,6.85
2022-08-25T03:50:11.515Z,6.93
2022-08-25T03:52:42.619Z,6.80
2022-08-25T03:55:13.725Z,7.97
2022-08-25T03:57:40.867Z,6.78
2022-08-25T04:00:10.133Z,6.20
2022-08-25T04:02:41.005Z,7.43
2022-08-25T04:05:10.017Z,6.22
2022-08-25T04:07:37.275Z,6.97
2022-08-25T04:10:10.196Z,6.93
2022-08-25T04:12:37.459Z,7.43
2022-08-25T04:15:06.319Z,6.88
2022-08-25T04:17:33.493Z,7.57
2022-08-25T04:20:02.178Z,7.80
2022-08-25T04:22:31.204Z,8.90
2022-08-25T04:25:00.781Z,9.40
2022-08-25T04:27:27.957Z,9.70
2022-08-25T04:29:54.951Z,9.45
2022-08-25T04:32:21.873Z,9.73
2022-08-25T04:34:49.349Z,10.63
2022-08-25T04:37:16.964Z,9.60
2022-08-25T04:39:44.086Z,11.63
2022-08-25T04:42:11.853Z,10.55
2022-08-25T04:44:38.855Z,10.20
2022-08-25T04:47:05.861Z,10.15
2022-08-25T04:49:32.815Z,10.27
2022-08-25T04:52:00.252Z,10.15
2022-08-25T04:54:28.352Z,8.93
2022-08-25T04:56:58.330Z,8.68
2022-08-25T04:59:29.466Z,9.85
2022-08-25T05:02:02.503Z,10.25
2022-08-25T05:04:31.081Z,9.05
2022-08-25T05:06:58.687Z,8.25
2022-08-25T05:09:27.058Z,9.55
2022-08-25T05:11:55.224Z,7.75
2022-08-25T05:14:48.644Z,8.80
2022-08-25T05:17:28.144Z,8.15
2022-08-25T05:19:55.031Z,9.10
2022-08-25T05:22:22.186Z,8.25
2022-08-25T05:24:51.294Z,8.90
2022-08-25T05:27:18.300Z,7.70
2022-08-25T05:29:45.292Z,8.38
2022-08-25T05:32:12.368Z,9.05
2022-08-25T05:34:39.325Z,8.70
2022-08-25T05:37:09.269Z,9.35
2022-08-25T05:39:38.965Z,8.45
2022-08-25T05:42:06.156Z,7.68
2022-08-25T05:44:33.126Z,8.27
2022-08-25T05:47:00.189Z,9.68
2022-08-25T05:49:27.591Z,8.65
2022-08-25T05:51:54.541Z,9.23
2022-08-25T05:54:21.516Z,8.68
2022-08-25T05:56:51.228Z,8.05
2022-08-25T05:59:20.987Z,8.32
2022-08-25T06:02:09.581Z,8.40
2022-08-25T06:04:39.596Z,8.20
2022-08-25T06:07:08.284Z,9.50
2022-08-25T06:09:37.621Z,8.32
2022-08-25T06:12:04.924Z,8.60
2022-08-25T06:14:35.193Z,9.43
2022-08-25T06:17:02.463Z,8.60
2022-08-25T06:19:29.457Z,9.40
2022-08-25T06:21:58.143Z,8.88
2022-08-25T06:24:27.073Z,7.53
2022-08-25T06:26:54.928Z,8.60
2022-08-25T06:29:22.082Z,8.45
2022-08-25T06:31:50.102Z,7.57
2022-08-25T06:34:18.721Z,8.30
2022-08-25T06:36:48.922Z,8.10
2022-08-25T06:39:16.926Z,6.65
2022-08-25T06:41:44.313Z,8.15
2022-08-25T06:44:12.185Z,7.03
2022-08-25T06:46:39.427Z,7.15
2022-08-25T06:49:07.064Z,8.05
2022-08-25T06:51:36.229Z,8.02
2022-08-25T06:54:05.407Z,8.25
2022-08-25T06:56:34.206Z,7.82
2022-08-25T06:59:03.397Z,6.65
2022-08-25T07:01:32.284Z,7.07
2022-08-25T07:04:01.640Z,6.55
2022-08-25T07:06:35.544Z,6.57
2022-08-25T07:09:05.618Z,6.93
2022-08-25T07:11:34.440Z,7.80
2022-08-25T07:14:07.014Z,6.72
2022-08-25T07:16:34.144Z,6.80
2022-08-25T07:19:01.866Z,6.47
2022-08-25T07:21:33.651Z,8.20
2022-08-25T07:24:07.294Z,7.40
2022-08-25T07:26:38.525Z,7.53
2022-08-25T07:29:12.866Z,7.03
2022-08-25T07:31:40.508Z,6.68
2022-08-25T07:34:28.494Z,6.85
2022-08-25T07:36:57.084Z,7.93
2022-08-25T07:39:25.340Z,6.93
2022-08-25T07:41:53.455Z,6.85
2022-08-25T07:44:22.455Z,6.78
2022-08-25T07:46:51.099Z,7.10
2022-08-25T07:49:23.352Z,6.97
2022-08-25T07:52:05.525Z,6.22
2022-08-25T07:54:38.142Z,6.75
2022-08-25T07:57:08.350Z,7.77
2022-08-25T07:59:40.260Z,7.15
2022-08-25T08:02:18.617Z,6.55
2022-08-25T08:04:49.883Z,7.18
2022-08-25T08:07:43.303Z,7.15
2022-08-25T08:13:02.187Z,7.28
2022-08-25T08:15:30.270Z,6.85
2022-08-25T08:18:00.147Z,7.70
2022-08-25T08:20:29.015Z,7.85
2022-08-25T08:22:56.190Z,8.15
2022-08-25T08:25:27.403Z,6.25
2022-08-25T08:27:55.769Z,7.40
2022-08-25T08:30:26.184Z,7.88
2022-08-25T08:33:11.896Z,6.93
2022-08-25T08:35:41.160Z,7.57
2022-08-25T08:38:14.902Z,7.70
2022-08-25T08:41:24.052Z,6.68
2022-08-25T08:44:00.327Z,7.45
2022-08-25T08:46:41.057Z,7.68
2022-08-25T08:49:26.962Z,7.22
2022-08-25T08:52:01.084Z,6.20
2022-08-25T08:54:36.350Z,7.20
2022-08-25T08:57:17.424Z,7.65
2022-08-25T08:59:52.098Z,7.10
2022-08-25T09:02:51.733Z,6.32
2022-08-25T09:05:23.024Z,7.18
2022-08-25T09:07:58.126Z,6.80
2022-08-25T09:10:33.685Z,6.80
2022-08-25T09:13:33.993Z,6.18
2022-08-25T09:16:34.393Z,5.38
2022-08-25T09:19:23.863Z,6.28
2022-08-25T09:22:35.317Z,6.53
2022-08-25T09:28:24.232Z,6.30
2022-08-25T09:31:09.738Z,6.80
2022-08-25T09:33:36.832Z,6.88
2022-08-25T09:36:06.396Z,6.18
2022-08-25T09:38:37.014Z,6.93
2022-08-25T09:41:06.198Z,6.20
2022-08-25T09:43:44.715Z,5.80
2022-08-25T09:46:16.216Z,6.00
2022-08-25T09:48:56.377Z,6.85
2022-08-25T09:51:25.998Z,6.78
2022-08-25T09:54:10.498Z,6.85
2022-08-25T09:57:08.675Z,6.32
2022-08-25T09:59:38.316Z,6.50
2022-08-25T10:02:20.556Z,6.43
2022-08-25T10:04:47.658Z,6.05
2022-08-25T10:07:28.546Z,7.05
2022-08-25T10:10:15.962Z,7.28
2022-08-25T10:12:51.547Z,6.15
2022-08-25T10:15:29.373Z,6.18
2022-08-25T10:18:21.070Z,6.75
2022-08-25T10:24:27.852Z,6.32
2022-08-25T10:27:29.743Z,6.90
2022-08-25T10:30:19.289Z,6.30
2022-08-25T10:34:09.461Z,6.13
2022-08-25T10:37:05.400Z,6.22
2022-08-25T10:40:19.358Z,6.43
2022-08-25T10:46:04.871Z,7.18
2022-08-25T10:48:48.515Z,6.45
2022-08-25T10:51:35.482Z,6.82
2022-08-25T10:54:07.453Z,7.28
2022-08-25T10:57:08.076Z,6.97
2022-08-25T11:00:01.030Z,7.97
2022-08-25T11:02:57.188Z,6.82
2022-08-25T11:05:51.249Z,6.57
2022-08-25T11:09:00.812Z,7.45
2022-08-25T11:14:58.142Z,6.85
2022-08-25T11:17:27.700Z,6.60
2022-08-25T11:20:10.311Z,6.50
2022-08-25T11:22:53.734Z,6.40
2022-08-25T11:25:42.411Z,7.00
2022-08-25T11:28:42.031Z,7.05
2022-08-25T11:31:10.899Z,24.92
2022-08-25T11:33:39.453Z,9.05
2022-08-25T11:36:29.559Z,7.88
2022-08-25T11:39:08.268Z,8.65
2022-08-25T11:42:15.373Z,7.50
2022-08-25T11:45:44.010Z,7.10
2022-08-25T11:49:34.014Z,7.35
2022-08-25T11:52:08.637Z,7.07
2022-08-25T11:54:49.409Z,8.27
2022-08-25T11:57:16.908Z,7.82
2022-08-25T12:11:06.090Z,6.82
2022-08-25T12:13:50.777Z,6.47
2022-08-25T12:16:36.653Z,7.25
2022-08-25T12:20:35.281Z,8.32
2022-08-25T12:23:04.148Z,7.10
2022-08-25T12:25:39.631Z,7.25
2022-08-25T12:32:45.291Z,7.25
2022-08-25T12:35:18.129Z,8.02
2022-08-25T12:38:09.071Z,7.22
2022-08-25T12:40:48.201Z,7.43
2022-08-25T12:43:33.253Z,7.20
2022-08-25T12:46:26.497Z,7.35
2022-08-25T12:50:03.939Z,7.22
2022-08-25T12:52:35.213Z,6.85
2022-08-25T12:55:14.476Z,7.25
2022-08-25T12:58:01.127Z,7.43
2022-08-25T13:00:52.475Z,7.30
2022-08-25T13:08:51.792Z,6.63
2022-08-25T13:11:46.443Z,7.13
2022-08-25T13:14:15.519Z,7.43
2022-08-25T13:16:59.603Z,6.30
2022-08-25T13:19:29.114Z,6.28
2022-08-25T13:22:15.940Z,7.28
2022-08-25T13:27:37.259Z,6.32
2022-08-25T13:30:33.577Z,7.57
2022-08-25T13:33:30.880Z,7.70
2022-08-25T13:36:52.064Z,7.15
2022-08-25T13:39:45.473Z,7.30
2022-08-25T13:42:17.614Z,6.90
2022-08-25T13:44:53.642Z,7.18
2022-08-25T13:47:43.704Z,7.05
2022-08-25T13:50:28.555Z,7.68
2022-08-25T13:53:03.110Z,6.35
2022-08-25T13:55:51.611Z,6.60
2022-08-25T13:58:38.589Z,7.72
2022-08-25T14:01:48.634Z,7.05
2022-08-25T14:04:32.493Z,6.82
2022-08-25T14:07:25.961Z,6.53
2022-08-25T14:09:58.381Z,8.18
2022-08-25T14:12:33.720Z,7.50
2022-08-25T14:15:32.103Z,6.53
2022-08-25T14:23:39.828Z,6.68
2022-08-25T14:26:06.939Z,6.90
2022-08-25T14:28:35.241Z,8.38
2022-08-25T14:31:08.678Z,7.53
2022-08-25T14:33:55.235Z,7.40
2022-08-25T14:36:22.747Z,8.02
2022-08-25T14:38:54.882Z,7.38
2022-08-25T14:41:24.345Z,6.93
2022-08-25T14:43:51.519Z,7.07
2022-08-25T14:46:26.960Z,7.80
2022-08-25T14:48:59.898Z,6.78
2022-08-25T14:51:28.557Z,7.30
2022-08-25T14:54:10.322Z,7.55
2022-08-25T14:56:38.248Z,6.53
2022-08-25T14:59:19.498Z,7.05
2022-08-25T15:01:47.215Z,7.78
2022-08-25T15:04:27.576Z,7.30
2022-08-25T15:07:02.996Z,6.80
2022-08-25T15:09:33.616Z,6.78
2022-08-25T15:12:05.074Z,7.50
2022-08-25T15:14:45.094Z,7.18
2022-08-25T15:17:13.006Z,7.15
2022-08-25T15:19:44.164Z,7.47
2022-08-25T15:22:12.769Z,8.10
2022-08-25T15:24:39.730Z,6.93
2022-08-25T15:27:10.075Z,7.85
2022-08-25T15:29:37.919Z,7.32
2022-08-25T15:32:07.304Z,7.82
2022-08-25T15:34:36.026Z,7.28
2022-08-25T15:37:12.211Z,8.18
2022-08-25T15:39:41.722Z,7.22
2022-08-25T15:42:15.337Z,7.95
2022-08-25T15:44:43.438Z,7.10
2022-08-25T15:47:21.924Z,8.10
2022-08-25T15:49:48.922Z,8.40
2022-08-25T15:52:16.009Z,8.55
2022-08-25T15:54:43.041Z,7.80
2022-08-25T15:57:18.048Z,7.75
2022-08-25T15:59:53.276Z,7.55
2022-08-25T16:02:21.621Z,8.68
2022-08-25T16:04:48.701Z,8.32
2022-08-25T16:07:15.661Z,9.18
2022-08-25T16:09:42.679Z,7.88
2022-08-25T16:12:10.990Z,8.68
2022-08-25T16:14:40.071Z,8.88
2022-08-25T16:17:12.684Z,8.25
2022-08-25T16:19:47.818Z,9.00
2022-08-25T16:22:15.902Z,8.20
2022-08-25T16:24:46.912Z,9.07
2022-08-25T16:27:15.284Z,8.80
2022-08-25T16:29:44.295Z,8.27
2022-08-25T16:32:14.211Z,9.30
2022-08-25T16:34:42.845Z,9.07
2022-08-25T16:37:12.061Z,10.05
2022-08-25T16:39:44.109Z,8.50
2022-08-25T16:42:12.168Z,8.80
2022-08-25T16:44:40.076Z,9.13
2022-08-25T16:47:08.843Z,9.13
2022-08-25T16:49:36.403Z,9.00
2022-08-25T16:52:25.159Z,9.50
2022-08-25T16:55:16.263Z,9.82
2022-08-25T16:57:47.659Z,10.15
2022-08-25T17:00:19.788Z,10.30
2022-08-25T17:02:47.280Z,10.77
2022-08-25T17:05:14.445Z,8.73
2022-08-25T17:07:41.901Z,9.48
2022-08-25T17:10:12.894Z,10.43
2022-08-25T17:12:42.348Z,10.23
2022-08-25T17:15:09.839Z,10.23
2022-08-25T17:17:37.137Z,10.15
2022-08-25T17:20:04.965Z,10.45
2022-08-25T17:22:33.999Z,9.52
2022-08-25T17:25:02.776Z,10.18
2022-08-25T17:27:33.849Z,10.82
2022-08-25T17:30:00.862Z,10.07
2022-08-25T17:32:28.950Z,10.20
2022-08-25T17:34:58.836Z,10.25
2022-08-25T17:37:25.925Z,10.68
2022-08-25T17:39:57.457Z,10.25
2022-08-25T17:42:31.781Z,11.45
2022-08-25T17:45:01.793Z,13.52
2022-08-25T17:47:34.013Z,11.68
2022-08-25T17:50:01.263Z,10.63
2022-08-25T17:52:33.171Z,11.77
2022-08-25T17:55:00.177Z,17.30
2022-08-25T17:57:27.732Z,14.68
2022-08-25T17:59:54.678Z,13.82
2022-08-25T18:02:21.830Z,14.07
2022-08-25T18:04:49.016Z,13.00
2022-08-25T18:07:16.019Z,12.13
2022-08-25T18:09:48.783Z,13.75
2022-08-25T18:12:18.954Z,13.52
2022-08-25T18:14:47.214Z,13.02
2022-08-25T18:17:15.108Z,13.90
2022-08-25T18:19:49.615Z,12.13
2022-08-25T18:22:16.981Z,11.18
2022-08-25T18:24:46.392Z,13.05
2022-08-25T18:27:27.463Z,11.98
2022-08-25T18:29:55.991Z,11.48
2022-08-25T18:32:26.133Z,11.50
2022-08-25T18:34:54.789Z,12.27
2022-08-25T18:37:40.290Z,12.23
2022-08-25T18:40:23.883Z,12.18
2022-08-25T18:42:56.479Z,10.98
2022-08-25T18:45:26.280Z,10.98
2022-08-25T18:48:03.232Z,12.50
2022-08-25T18:50:45.917Z,11.55
2022-08-25T18:56:35.205Z,11.80
2022-08-25T18:59:02.655Z,10.95
2022-08-25T19:01:31.886Z,12.52
2022-08-25T19:03:59.053Z,12.82
2022-08-25T19:06:26.114Z,10.43
2022-08-25T19:08:56.094Z,10.43
2022-08-25T19:11:29.955Z,12.13
2022-08-25T19:14:01.451Z,11.13
2022-08-25T19:16:39.406Z,12.00
2022-08-25T19:19:14.063Z,10.88
2022-08-25T19:21:44.941Z,11.02
2022-08-25T19:24:16.576Z,12.40
2022-08-25T19:26:43.682Z,10.32
2022-08-25T19:29:14.369Z,11.10
2022-08-25T19:31:49.040Z,10.30
2022-08-25T19:34:28.421Z,11.15
2022-08-25T19:37:04.359Z,10.52
2022-08-25T19:39:34.152Z,9.65
2022-08-25T19:42:35.006Z,9.80
2022-08-25T19:45:02.140Z,9.65
2022-08-25T19:47:31.911Z,10.45
2022-08-25T19:49:58.975Z,10.15
2022-08-25T19:52:26.581Z,10.45
2022-08-25T19:54:59.183Z,10.60
2022-08-25T20:00:29.450Z,9.85
2022-08-25T20:03:00.605Z,10.07
2022-08-25T20:05:28.551Z,11.18
2022-08-25T20:07:56.815Z,10.07
2022-08-25T20:10:26.879Z,10.20
2022-08-25T20:12:55.872Z,10.07
2022-08-25T20:15:23.073Z,8.60
2022-08-25T20:17:50.691Z,10.95
2022-08-25T20:22:50.937Z,9.38
2022-08-25T20:25:27.009Z,10.27
2022-08-25T20:28:05.988Z,10.32
2022-08-25T20:30:43.480Z,10.45
2022-08-25T20:33:11.699Z,9.57
2022-08-25T20:35:38.906Z,10.55
2022-08-25T20:38:06.419Z,12.55
2022-08-25T20:40:34.466Z,11.13
2022-08-25T20:43:03.703Z,10.38
2022-08-25T20:45:31.311Z,11.38
2022-08-25T20:47:58.257Z,11.18
2022-08-25T20:50:25.919Z,10.32
2022-08-25T20:52:56.975Z,10.70
2022-08-25T20:55:56.153Z,10.65
2022-08-25T20:58:57.246Z,10.18
2022-08-25T21:01:37.925Z,10.60
2022-08-25T21:04:09.470Z,9.20
2022-08-25T21:06:40.793Z,10.52
2022-08-25T21:09:14.205Z,11.45
2022-08-25T21:11:45.089Z,9.70
2022-08-25T23:09:08.598Z,8.52
2022-08-25T23:11:38.457Z,8.77
2022-08-25T23:14:10.392Z,9.85
2022-08-25T23:16:42.740Z,9.57
2022-08-25T23:19:13.627Z,10.32
2022-08-25T23:22:00.869Z,10.52
2022-08-25T23:24:30.421Z,10.68
2022-08-25T23:26:59.774Z,10.18
2022-08-25T23:29:28.514Z,9.90
2022-08-25T23:31:56.445Z,11.85
2022-08-25T23:34:24.445Z,11.38
2022-08-25T23:36:51.461Z,12.25
2022-08-25T23:39:18.784Z,13.40
2022-08-25T23:41:51.092Z,12.43
2022-08-25T23:44:19.486Z,13.10
2022-08-25T23:46:47.813Z,11.82
2022-08-25T23:49:18.541Z,12.35
2022-08-25T23:51:48.660Z,12.27
2022-08-25T23:54:19.527Z,12.48
2022-08-25T23:56:51.847Z,12.80
